»·PEaware :: N79567 KBFL-KMHV

N79567 :: KBFL-KMHV

FLIGHT INFORMATION

Flight Status: Arrived
Operator: Privately registered:
United States
More flights under this callsign
Pilot: Eric S. (23095)
Aircraft: CESSNA 172 SKYHAWK
(C172)
More flights by this aircraft type
Origin: KBFL Meadows
United States
Destination: KMHV Mojave
United States
More flights between these airports :: More routes between these airports
Route: DIRECT
File this flight plan on PilotEdge
Remarks: CAT6
Altitude:
(Current/Filed)
7,500ft
Speed:
(Current/Filed)
115kts
Departed: 10-Feb-19 06:10 PM
Arrived: 10-Feb-19 06:43 PM
Distance/Time
Traveled:
50nm/0:32
Distance/Time
To Go:
Arrived

Flight Plot

Page will automatically refresh every two minutes.


Map Options




Map Legend


Flown Route
Filed Route
Departure Airport
Arrival Airport
Navaid (VOR, NDB)
Fix

Horizontal Profiles

Position Reports

Time Latitude Longitude Heading Altitude Ground
Speed
10-Feb-19 17:42 35.429367 -119.046106 226 495ft 0kts
10-Feb-19 17:43 35.429367 -119.046106 226 495ft 0kts
10-Feb-19 17:44 35.429367 -119.046106 226 495ft 0kts
10-Feb-19 17:45 35.429367 -119.046106 226 495ft 0kts
10-Feb-19 17:46 35.429367 -119.046106 226 495ft 0kts
10-Feb-19 17:47 35.429367 -119.046106 226 495ft 0kts
10-Feb-19 17:48 35.429367 -119.046106 226 495ft 0kts
10-Feb-19 17:49 35.429367 -119.046106 226 495ft 0kts
10-Feb-19 17:50 35.429367 -119.046106 226 495ft 0kts
10-Feb-19 17:51 35.429367 -119.046106 226 495ft 0kts
10-Feb-19 17:52 35.429367 -119.046106 226 495ft 0kts
10-Feb-19 17:53 35.429367 -119.046106 226 495ft 0kts
10-Feb-19 17:54 35.429367 -119.046106 226 495ft 0kts
10-Feb-19 17:55 35.429367 -119.046106 226 495ft 0kts
10-Feb-19 17:56 35.429367 -119.046106 226 495ft 0kts
10-Feb-19 17:57 35.429367 -119.046106 226 495ft 0kts
10-Feb-19 17:58 35.429367 -119.046106 226 495ft 0kts
10-Feb-19 17:59 35.429367 -119.046106 226 495ft 0kts
10-Feb-19 18:00 35.427631 -119.046488 135 486ft 15kts
10-Feb-19 18:01 35.425274 -119.044376 247 479ft 0kts
10-Feb-19 18:03 35.425274 -119.044376 247 479ft 0kts
10-Feb-19 18:04 35.425274 -119.044376 247 479ft 0kts
10-Feb-19 18:05 35.425274 -119.044376 247 479ft 0kts
10-Feb-19 18:06 35.425274 -119.044376 247 479ft 0kts
10-Feb-19 18:07 35.425274 -119.044376 247 479ft 0kts
10-Feb-19 18:08 35.425274 -119.044376 247 479ft 0kts
10-Feb-19 18:09 35.425503 -119.045521 280 477ft 6kts
10-Feb-19 18:10 35.435682 -119.057878 316 778ft 79kts
10-Feb-19 18:11 35.451577 -119.055363 74 1414ft 84kts
10-Feb-19 18:12 35.441328 -119.029377 131 2022ft 87kts
10-Feb-19 18:13 35.427138 -119.005448 133 2635ft 86kts
10-Feb-19 18:14 35.412038 -118.983774 130 3271ft 83kts
10-Feb-19 18:15 35.399257 -118.959393 115 3767ft 94kts
10-Feb-19 18:16 35.390442 -118.930122 120 4266ft 92kts
10-Feb-19 18:17 35.380401 -118.901300 110 4731ft 93kts
10-Feb-19 18:18 35.370192 -118.872243 121 5165ft 93kts
10-Feb-19 18:19 35.358965 -118.843260 110 5592ft 94kts
10-Feb-19 18:20 35.349315 -118.813292 118 6018ft 95kts
10-Feb-19 18:21 35.336814 -118.784605 118 6435ft 96kts
10-Feb-19 18:21 35.327179 -118.760067 117 6766ft 96kts
10-Feb-19 18:22 35.315607 -118.730206 118 7148ft 97kts
10-Feb-19 18:24 35.298766 -118.696680 127 7437ft 101kts
10-Feb-19 18:24 35.284340 -118.673692 126 7421ft 102kts
10-Feb-19 18:25 35.267350 -118.644927 126 7371ft 106kts
10-Feb-19 18:26 35.251535 -118.614619 121 7350ft 105kts
10-Feb-19 18:27 35.235015 -118.583544 125 7330ft 113kts
10-Feb-19 18:28 35.219433 -118.550577 122 7417ft 115kts
10-Feb-19 18:29 35.204173 -118.515726 118 7573ft 118kts
10-Feb-19 18:30 35.187439 -118.479584 119 7579ft 128kts
10-Feb-19 18:31 35.170854 -118.442104 118 7462ft 123kts
10-Feb-19 18:32 35.153986 -118.406106 121 7341ft 122kts
10-Feb-19 18:33 35.137451 -118.369725 117 7397ft 124kts
10-Feb-19 18:34 35.124354 -118.334009 118 7450ft 112kts
10-Feb-19 18:35 35.113331 -118.299636 114 7346ft 110kts
10-Feb-19 18:36 35.095493 -118.269643 163 6714ft 115kts
10-Feb-19 18:37 35.065332 -118.257846 108 5610ft 137kts
10-Feb-19 18:38 35.068304 -118.217413 100 4549ft 112kts
10-Feb-19 18:39 35.066853 -118.183239 81 3698ft 91kts
10-Feb-19 18:40 35.070972 -118.156788 85 3559ft 79kts
10-Feb-19 18:41 35.066485 -118.133993 185 3494ft 78kts
10-Feb-19 18:42 35.059176 -118.148017 270 2746ft 25kts
10-Feb-19 18:43 35.059184 -118.152610 270 2757ft 13kts
10-Feb-19 18:44 35.058949 -118.157495 229 2766ft 8kts
10-Feb-19 18:45 35.058360 -118.157803 181 2765ft 0kts
10-Feb-19 18:46 35.058360 -118.157803 181 2765ft 0kts
10-Feb-19 18:47 35.058360 -118.157803 181 2765ft 0kts
10-Feb-19 18:48 35.057122 -118.157524 73 2762ft 0kts
10-Feb-19 18:49 35.057122 -118.157524 73 2762ft 0kts
10-Feb-19 18:50 35.057122 -118.157524 73 2762ft 0kts
10-Feb-19 18:51 35.057122 -118.157524 73 2762ft 0kts
10-Feb-19 18:52 35.057122 -118.157524 73 2762ft 0kts
10-Feb-19 18:53 35.057122 -118.157524 73 2762ft 0kts
10-Feb-19 18:54 35.057122 -118.157524 73 2762ft 0kts
10-Feb-19 18:55 35.057122 -118.157524 73 2762ft 0kts
10-Feb-19 18:56 35.057122 -118.157524 73 2762ft 0kts

Navigation Log

Ident Type
Flight plan parsing failed, navigation log unavailable